This is the latest recevied weather packets stored in our database for station/object WX7FGZ-5. If no packets are shown the sender has not sent any weather packets the latest 10 day(s).
| Time | Temp. | Humidity | Pressure | Rain* | Wind** | Luminosity | Snow |
|---|---|---|---|---|---|---|---|
| 1777652349 | 12.78° C | 26% | 1021.8 hPa | 0 mm | - | 777 W/m² | - |
| 1777652253 | 12.78° C | 25% | 1021.9 hPa | 0 mm | - | 749 W/m² | - |
| 1777652050 | 12.78° C | 25% | 1021.9 hPa | 0 mm | - | 749 W/m² | - |
| 1777651968 | 12.78° C | 26% | 1021.9 hPa | 0 mm | - | 726 W/m² | - |
| 1777651749 | 12.78° C | 26% | 1021.9 hPa | 0 mm | - | 726 W/m² | - |
| 1777651363 | 12.78° C | 26% | 1021.8 hPa | 0 mm | - | 691 W/m² | - |
| 1777651149 | 12.78° C | 26% | 1021.8 hPa | 0 mm | - | 691 W/m² | - |
| 1777651000 | 12.78° C | 26% | 1021.7 hPa | 0 mm | - | 673 W/m² | - |
| 1777650850 | 12.78° C | 26% | 1021.7 hPa | 0 mm | - | 673 W/m² | - |
| 1777650798 | 13.33° C | 25% | 1021.7 hPa | 0 mm | - | 650 W/m² | - |
| 1777650549 | 13.33° C | 25% | 1021.7 hPa | 0 mm | - | 650 W/m² | - |
| 1777650249 | 13.33° C | 25% | 1021.6 hPa | 0 mm | - | 629 W/m² | - |
| 1777649950 | 12.78° C | 25% | 1021.6 hPa | 0 mm | - | 615 W/m² | - |
| 1777649576 | 12.78° C | 27% | 1021.5 hPa | 0 mm | - | 578 W/m² | - |
| 1777649349 | 12.78° C | 27% | 1021.5 hPa | 0 mm | - | 578 W/m² | - |
| 1777649055 | 12.78° C | 27% | 1021.5 hPa | 0 mm | - | 559 W/m² | - |
| 1777647538 | 10.56° C | 31% | 1021.6 hPa | 0 mm | - | 448 W/m² | - |
| 1777647250 | 10.56° C | 31% | 1021.6 hPa | 0 mm | - | 448 W/m² | - |
| 1777646854 | 10° C | 32% | 1021.5 hPa | 0 mm | - | 406 W/m² | - |
| 1777646650 | 10° C | 32% | 1021.5 hPa | 0 mm | - | 406 W/m² | - |
| 1777645973 | 7.78° C | 36% | 1020.9 hPa | 0 mm | - | 353 W/m² | - |
| 1777645750 | 7.78° C | 36% | 1020.9 hPa | 0 mm | - | 353 W/m² | - |
| 1777645738 | 6.67° C | 37% | 1021 hPa | 0 mm | - | 332 W/m² | - |
| 1777645449 | 6.67° C | 37% | 1021 hPa | 0 mm | - | 332 W/m² | - |
| 1777645149 | 6.11° C | 40% | 1020.9 hPa | 0 mm | - | 315 W/m² | - |
* Rain latest hour (hover to see other rain measurements)
** Current wind speed in m/s (hover to see current wind gust speed)